sensor_id;sensor_type;location;lat;lon;timestamp;P1;durP1;ratioP1;P2;durP2;ratioP2
21999;SDS011;11164;48.818;2.322;2023-11-19T00:00:28;3.25;;;1.15;;
21999;SDS011;11164;48.818;2.322;2023-11-19T00:02:53;4.72;;;1.25;;
21999;SDS011;11164;48.818;2.322;2023-11-19T00:05:19;4.50;;;1.10;;
21999;SDS011;11164;48.818;2.322;2023-11-19T00:07:44;2.63;;;1.10;;
21999;SDS011;11164;48.818;2.322;2023-11-19T00:10:13;4.22;;;1.30;;
21999;SDS011;11164;48.818;2.322;2023-11-19T00:12:47;3.25;;;1.42;;
21999;SDS011;11164;48.818;2.322;2023-11-19T00:15:14;2.75;;;1.10;;
21999;SDS011;11164;48.818;2.322;2023-11-19T00:17:40;3.85;;;1.30;;
21999;SDS011;11164;48.818;2.322;2023-11-19T00:20:16;4.85;;;1.35;;
21999;SDS011;11164;48.818;2.322;2023-11-19T00:22:42;3.53;;;1.10;;
21999;SDS011;11164;48.818;2.322;2023-11-19T00:25:09;3.13;;;1.20;;
21999;SDS011;11164;48.818;2.322;2023-11-19T00:27:34;3.13;;;1.08;;
21999;SDS011;11164;48.818;2.322;2023-11-19T00:30:00;3.63;;;1.25;;
21999;SDS011;11164;48.818;2.322;2023-11-19T00:32:25;3.97;;;1.20;;
21999;SDS011;11164;48.818;2.322;2023-11-19T00:34:51;5.53;;;1.20;;
21999;SDS011;11164;48.818;2.322;2023-11-19T00:37:16;5.63;;;1.30;;
21999;SDS011;11164;48.818;2.322;2023-11-19T00:39:42;4.97;;;1.05;;
21999;SDS011;11164;48.818;2.322;2023-11-19T00:42:08;2.03;;;1.00;;
21999;SDS011;11164;48.818;2.322;2023-11-19T00:44:35;3.33;;;1.00;;
21999;SDS011;11164;48.818;2.322;2023-11-19T00:47:00;3.13;;;1.00;;
21999;SDS011;11164;48.818;2.322;2023-11-19T00:49:25;4.15;;;1.20;;
21999;SDS011;11164;48.818;2.322;2023-11-19T00:51:51;3.30;;;1.17;;
21999;SDS011;11164;48.818;2.322;2023-11-19T00:54:16;2.45;;;1.05;;
21999;SDS011;11164;48.818;2.322;2023-11-19T00:56:41;1.83;;;0.70;;
21999;SDS011;11164;48.818;2.322;2023-11-19T00:59:07;4.10;;;1.50;;
21999;SDS011;11164;48.818;2.322;2023-11-19T01:01:32;4.53;;;1.10;;
21999;SDS011;11164;48.818;2.322;2023-11-19T01:03:58;5.65;;;1.10;;
21999;SDS011;11164;48.818;2.322;2023-11-19T01:06:26;4.68;;;1.38;;
21999;SDS011;11164;48.818;2.322;2023-11-19T01:08:55;3.55;;;1.10;;
21999;SDS011;11164;48.818;2.322;2023-11-19T01:11:24;3.83;;;0.90;;
21999;SDS011;11164;48.818;2.322;2023-11-19T01:13:50;2.85;;;1.00;;
21999;SDS011;11164;48.818;2.322;2023-11-19T01:16:16;3.20;;;1.00;;
21999;SDS011;11164;48.818;2.322;2023-11-19T01:18:42;2.63;;;0.93;;
21999;SDS011;11164;48.818;2.322;2023-11-19T01:21:07;3.40;;;1.10;;
21999;SDS011;11164;48.818;2.322;2023-11-19T01:23:33;3.63;;;1.13;;
21999;SDS011;11164;48.818;2.322;2023-11-19T01:25:59;4.13;;;1.17;;
21999;SDS011;11164;48.818;2.322;2023-11-19T01:28:24;4.80;;;1.10;;
21999;SDS011;11164;48.818;2.322;2023-11-19T01:30:53;5.22;;;1.98;;
21999;SDS011;11164;48.818;2.322;2023-11-19T01:33:18;5.68;;;1.10;;
21999;SDS011;11164;48.818;2.322;2023-11-19T01:35:43;4.55;;;1.15;;
21999;SDS011;11164;48.818;2.322;2023-11-19T01:38:09;5.10;;;1.38;;
21999;SDS011;11164;48.818;2.322;2023-11-19T01:40:34;4.20;;;1.30;;
21999;SDS011;11164;48.818;2.322;2023-11-19T01:43:01;3.13;;;0.90;;
21999;SDS011;11164;48.818;2.322;2023-11-19T01:45:28;5.43;;;1.00;;
21999;SDS011;11164;48.818;2.322;2023-11-19T01:47:57;4.47;;;1.40;;
21999;SDS011;11164;48.818;2.322;2023-11-19T01:50:25;4.68;;;1.30;;
21999;SDS011;11164;48.818;2.322;2023-11-19T01:52:54;6.40;;;1.08;;
21999;SDS011;11164;48.818;2.322;2023-11-19T01:55:22;4.82;;;1.13;;
21999;SDS011;11164;48.818;2.322;2023-11-19T01:57:49;3.42;;;1.00;;
21999;SDS011;11164;48.818;2.322;2023-11-19T02:00:14;8.25;;;1.50;;
21999;SDS011;11164;48.818;2.322;2023-11-19T02:02:41;6.28;;;1.20;;
21999;SDS011;11164;48.818;2.322;2023-11-19T02:05:06;3.97;;;1.20;;
21999;SDS011;11164;48.818;2.322;2023-11-19T02:07:32;5.80;;;1.10;;
21999;SDS011;11164;48.818;2.322;2023-11-19T02:09:57;6.38;;;1.08;;
21999;SDS011;11164;48.818;2.322;2023-11-19T02:12:30;5.32;;;1.33;;
21999;SDS011;11164;48.818;2.322;2023-11-19T02:14:59;6.88;;;1.10;;
21999;SDS011;11164;48.818;2.322;2023-11-19T02:17:25;5.82;;;1.00;;
21999;SDS011;11164;48.818;2.322;2023-11-19T02:19:56;9.40;;;1.35;;
21999;SDS011;11164;48.818;2.322;2023-11-19T02:22:21;5.93;;;1.25;;
21999;SDS011;11164;48.818;2.322;2023-11-19T02:24:46;6.93;;;1.42;;
21999;SDS011;11164;48.818;2.322;2023-11-19T02:27:19;5.38;;;1.38;;
21999;SDS011;11164;48.818;2.322;2023-11-19T02:30:07;5.95;;;1.30;;
21999;SDS011;11164;48.818;2.322;2023-11-19T02:32:33;4.95;;;1.45;;
21999;SDS011;11164;48.818;2.322;2023-11-19T02:35:00;3.90;;;1.30;;
21999;SDS011;11164;48.818;2.322;2023-11-19T02:37:26;6.53;;;1.40;;
21999;SDS011;11164;48.818;2.322;2023-11-19T02:39:53;5.18;;;1.17;;
21999;SDS011;11164;48.818;2.322;2023-11-19T02:42:18;5.28;;;1.27;;
21999;SDS011;11164;48.818;2.322;2023-11-19T02:44:44;3.35;;;1.15;;
21999;SDS011;11164;48.818;2.322;2023-11-19T02:47:11;5.55;;;1.10;;
21999;SDS011;11164;48.818;2.322;2023-11-19T02:49:36;4.47;;;1.17;;
21999;SDS011;11164;48.818;2.322;2023-11-19T02:52:02;6.85;;;1.60;;
21999;SDS011;11164;48.818;2.322;2023-11-19T02:54:30;8.32;;;1.55;;
21999;SDS011;11164;48.818;2.322;2023-11-19T02:56:59;7.75;;;1.20;;
21999;SDS011;11164;48.818;2.322;2023-11-19T02:59:26;11.93;;;2.53;;
21999;SDS011;11164;48.818;2.322;2023-11-19T03:01:53;6.18;;;1.50;;
21999;SDS011;11164;48.818;2.322;2023-11-19T03:04:19;6.75;;;1.40;;
21999;SDS011;11164;48.818;2.322;2023-11-19T03:06:48;5.10;;;1.20;;
21999;SDS011;11164;48.818;2.322;2023-11-19T03:09:13;6.88;;;1.33;;
21999;SDS011;11164;48.818;2.322;2023-11-19T03:11:39;5.30;;;1.40;;
21999;SDS011;11164;48.818;2.322;2023-11-19T03:14:04;7.43;;;1.42;;
21999;SDS011;11164;48.818;2.322;2023-11-19T03:16:29;4.55;;;1.30;;
21999;SDS011;11164;48.818;2.322;2023-11-19T03:18:55;4.47;;;1.30;;
21999;SDS011;11164;48.818;2.322;2023-11-19T03:21:28;7.28;;;1.60;;
21999;SDS011;11164;48.818;2.322;2023-11-19T03:23:56;6.05;;;1.42;;
21999;SDS011;11164;48.818;2.322;2023-11-19T03:26:21;6.57;;;1.42;;
21999;SDS011;11164;48.818;2.322;2023-11-19T03:28:47;6.25;;;1.30;;
21999;SDS011;11164;48.818;2.322;2023-11-19T03:31:12;9.27;;;1.77;;
21999;SDS011;11164;48.818;2.322;2023-11-19T03:33:37;7.80;;;1.50;;
21999;SDS011;11164;48.818;2.322;2023-11-19T03:36:03;6.85;;;1.48;;
21999;SDS011;11164;48.818;2.322;2023-11-19T03:38:28;7.18;;;1.40;;
21999;SDS011;11164;48.818;2.322;2023-11-19T03:40:54;7.70;;;1.40;;
21999;SDS011;11164;48.818;2.322;2023-11-19T03:43:19;3.28;;;1.02;;
21999;SDS011;11164;48.818;2.322;2023-11-19T03:45:44;4.82;;;1.58;;
21999;SDS011;11164;48.818;2.322;2023-11-19T03:48:10;5.97;;;1.40;;
21999;SDS011;11164;48.818;2.322;2023-11-19T03:50:35;6.80;;;1.15;;
21999;SDS011;11164;48.818;2.322;2023-11-19T03:53:00;9.93;;;1.60;;
21999;SDS011;11164;48.818;2.322;2023-11-19T03:55:25;7.72;;;1.48;;
21999;SDS011;11164;48.818;2.322;2023-11-19T03:57:51;6.53;;;1.50;;
21999;SDS011;11164;48.818;2.322;2023-11-19T04:00:16;5.03;;;1.20;;
21999;SDS011;11164;48.818;2.322;2023-11-19T04:02:42;8.38;;;1.45;;
21999;SDS011;11164;48.818;2.322;2023-11-19T04:05:07;5.38;;;1.23;;
21999;SDS011;11164;48.818;2.322;2023-11-19T04:07:33;7.13;;;1.48;;
21999;SDS011;11164;48.818;2.322;2023-11-19T04:09:58;7.63;;;1.85;;
21999;SDS011;11164;48.818;2.322;2023-11-19T04:12:24;8.32;;;1.40;;
21999;SDS011;11164;48.818;2.322;2023-11-19T04:14:49;8.85;;;1.50;;
21999;SDS011;11164;48.818;2.322;2023-11-19T04:17:15;6.82;;;1.55;;
21999;SDS011;11164;48.818;2.322;2023-11-19T04:19:40;7.68;;;1.50;;
21999;SDS011;11164;48.818;2.322;2023-11-19T04:22:09;10.07;;;1.58;;
21999;SDS011;11164;48.818;2.322;2023-11-19T04:24:35;8.02;;;1.33;;
21999;SDS011;11164;48.818;2.322;2023-11-19T04:27:01;7.72;;;1.50;;
21999;SDS011;11164;48.818;2.322;2023-11-19T04:29:26;6.70;;;1.52;;
21999;SDS011;11164;48.818;2.322;2023-11-19T04:31:52;6.03;;;1.40;;
21999;SDS011;11164;48.818;2.322;2023-11-19T04:34:17;6.80;;;1.90;;
21999;SDS011;11164;48.818;2.322;2023-11-19T04:36:42;4.78;;;1.13;;
21999;SDS011;11164;48.818;2.322;2023-11-19T04:39:09;12.38;;;1.98;;
21999;SDS011;11164;48.818;2.322;2023-11-19T04:41:35;6.75;;;1.45;;
21999;SDS011;11164;48.818;2.322;2023-11-19T04:44:01;9.80;;;1.60;;
21999;SDS011;11164;48.818;2.322;2023-11-19T04:46:26;9.85;;;1.23;;
21999;SDS011;11164;48.818;2.322;2023-11-19T04:48:51;5.85;;;1.40;;
21999;SDS011;11164;48.818;2.322;2023-11-19T04:51:17;7.07;;;1.73;;
21999;SDS011;11164;48.818;2.322;2023-11-19T04:53:42;7.05;;;1.38;;
21999;SDS011;11164;48.818;2.322;2023-11-19T04:56:08;6.03;;;1.58;;
21999;SDS011;11164;48.818;2.322;2023-11-19T04:58:34;10.30;;;1.85;;
21999;SDS011;11164;48.818;2.322;2023-11-19T05:01:02;5.15;;;1.60;;
21999;SDS011;11164;48.818;2.322;2023-11-19T05:03:28;7.03;;;1.60;;
21999;SDS011;11164;48.818;2.322;2023-11-19T05:05:54;7.57;;;1.70;;
21999;SDS011;11164;48.818;2.322;2023-11-19T05:08:19;8.07;;;1.33;;
21999;SDS011;11164;48.818;2.322;2023-11-19T05:10:44;5.40;;;1.33;;
21999;SDS011;11164;48.818;2.322;2023-11-19T05:13:09;7.57;;;1.63;;
21999;SDS011;11164;48.818;2.322;2023-11-19T05:15:35;9.40;;;1.85;;
21999;SDS011;11164;48.818;2.322;2023-11-19T05:18:00;7.57;;;1.55;;
21999;SDS011;11164;48.818;2.322;2023-11-19T05:20:25;8.55;;;1.55;;
21999;SDS011;11164;48.818;2.322;2023-11-19T05:22:51;8.38;;;1.67;;
21999;SDS011;11164;48.818;2.322;2023-11-19T05:25:18;5.43;;;1.20;;
21999;SDS011;11164;48.818;2.322;2023-11-19T05:27:45;8.85;;;1.60;;
21999;SDS011;11164;48.818;2.322;2023-11-19T05:30:10;11.63;;;2.20;;
21999;SDS011;11164;48.818;2.322;2023-11-19T05:32:36;8.70;;;1.73;;
21999;SDS011;11164;48.818;2.322;2023-11-19T05:35:02;8.48;;;1.45;;
21999;SDS011;11164;48.818;2.322;2023-11-19T05:37:27;9.15;;;1.58;;
21999;SDS011;11164;48.818;2.322;2023-11-19T05:39:53;7.25;;;1.40;;
21999;SDS011;11164;48.818;2.322;2023-11-19T05:42:18;8.50;;;1.45;;
21999;SDS011;11164;48.818;2.322;2023-11-19T05:44:43;7.18;;;1.30;;
21999;SDS011;11164;48.818;2.322;2023-11-19T05:47:09;7.07;;;1.52;;
21999;SDS011;11164;48.818;2.322;2023-11-19T05:49:34;6.43;;;1.60;;
21999;SDS011;11164;48.818;2.322;2023-11-19T05:51:59;7.45;;;1.45;;
21999;SDS011;11164;48.818;2.322;2023-11-19T05:54:28;6.63;;;1.58;;
21999;SDS011;11164;48.818;2.322;2023-11-19T05:56:53;10.38;;;1.48;;
21999;SDS011;11164;48.818;2.322;2023-11-19T05:59:19;7.57;;;1.70;;
21999;SDS011;11164;48.818;2.322;2023-11-19T06:01:45;7.93;;;1.50;;
21999;SDS011;11164;48.818;2.322;2023-11-19T06:04:10;4.75;;;1.58;;
21999;SDS011;11164;48.818;2.322;2023-11-19T06:06:36;10.98;;;1.70;;
21999;SDS011;11164;48.818;2.322;2023-11-19T06:09:01;8.32;;;2.00;;
21999;SDS011;11164;48.818;2.322;2023-11-19T06:11:30;5.72;;;1.65;;
21999;SDS011;11164;48.818;2.322;2023-11-19T06:13:56;8.63;;;1.58;;
21999;SDS011;11164;48.818;2.322;2023-11-19T06:16:22;7.57;;;1.95;;
21999;SDS011;11164;48.818;2.322;2023-11-19T06:18:48;7.60;;;1.65;;
21999;SDS011;11164;48.818;2.322;2023-11-19T06:21:13;10.70;;;1.83;;
21999;SDS011;11164;48.818;2.322;2023-11-19T06:23:39;8.10;;;1.60;;
21999;SDS011;11164;48.818;2.322;2023-11-19T06:26:04;10.00;;;1.65;;
21999;SDS011;11164;48.818;2.322;2023-11-19T06:28:30;8.27;;;1.65;;
21999;SDS011;11164;48.818;2.322;2023-11-19T06:30:56;10.65;;;1.70;;
21999;SDS011;11164;48.818;2.322;2023-11-19T06:33:23;9.25;;;1.83;;
21999;SDS011;11164;48.818;2.322;2023-11-19T06:35:48;11.27;;;1.60;;
21999;SDS011;11164;48.818;2.322;2023-11-19T06:38:14;9.07;;;1.70;;
21999;SDS011;11164;48.818;2.322;2023-11-19T06:40:39;13.82;;;1.98;;
21999;SDS011;11164;48.818;2.322;2023-11-19T06:43:06;8.77;;;2.05;;
21999;SDS011;11164;48.818;2.322;2023-11-19T06:45:33;11.30;;;1.40;;
21999;SDS011;11164;48.818;2.322;2023-11-19T06:48:00;7.43;;;1.80;;
21999;SDS011;11164;48.818;2.322;2023-11-19T06:50:28;10.02;;;2.53;;
21999;SDS011;11164;48.818;2.322;2023-11-19T06:52:53;7.57;;;1.70;;
21999;SDS011;11164;48.818;2.322;2023-11-19T06:55:19;10.48;;;1.63;;
21999;SDS011;11164;48.818;2.322;2023-11-19T06:57:44;10.13;;;1.70;;
21999;SDS011;11164;48.818;2.322;2023-11-19T07:00:09;8.68;;;1.70;;
21999;SDS011;11164;48.818;2.322;2023-11-19T07:02:36;8.23;;;1.60;;
21999;SDS011;11164;48.818;2.322;2023-11-19T07:05:01;8.20;;;1.58;;
21999;SDS011;11164;48.818;2.322;2023-11-19T07:07:29;10.77;;;1.65;;
21999;SDS011;11164;48.818;2.322;2023-11-19T07:09:55;13.40;;;2.15;;
21999;SDS011;11164;48.818;2.322;2023-11-19T07:12:20;10.52;;;1.80;;
21999;SDS011;11164;48.818;2.322;2023-11-19T07:14:46;11.30;;;2.10;;
21999;SDS011;11164;48.818;2.322;2023-11-19T07:17:11;7.65;;;1.85;;
21999;SDS011;11164;48.818;2.322;2023-11-19T07:19:37;11.68;;;2.00;;
21999;SDS011;11164;48.818;2.322;2023-11-19T07:22:03;11.75;;;2.03;;
21999;SDS011;11164;48.818;2.322;2023-11-19T07:24:29;11.55;;;2.22;;
21999;SDS011;11164;48.818;2.322;2023-11-19T07:26:54;7.03;;;1.80;;
21999;SDS011;11164;48.818;2.322;2023-11-19T07:29:20;9.52;;;2.20;;
21999;SDS011;11164;48.818;2.322;2023-11-19T07:31:47;10.13;;;1.98;;
21999;SDS011;11164;48.818;2.322;2023-11-19T07:34:13;8.23;;;1.88;;
21999;SDS011;11164;48.818;2.322;2023-11-19T07:36:39;9.30;;;1.67;;
21999;SDS011;11164;48.818;2.322;2023-11-19T07:39:04;12.10;;;1.85;;
21999;SDS011;11164;48.818;2.322;2023-11-19T07:41:30;12.60;;;2.13;;
21999;SDS011;11164;48.818;2.322;2023-11-19T07:43:56;11.68;;;2.10;;
21999;SDS011;11164;48.818;2.322;2023-11-19T07:46:21;9.43;;;2.00;;
21999;SDS011;11164;48.818;2.322;2023-11-19T07:48:46;8.63;;;2.33;;
21999;SDS011;11164;48.818;2.322;2023-11-19T07:51:12;8.88;;;2.25;;
21999;SDS011;11164;48.818;2.322;2023-11-19T07:53:38;8.57;;;2.08;;
21999;SDS011;11164;48.818;2.322;2023-11-19T07:56:04;8.27;;;1.80;;
21999;SDS011;11164;48.818;2.322;2023-11-19T07:58:30;10.73;;;2.00;;
21999;SDS011;11164;48.818;2.322;2023-11-19T08:00:56;14.18;;;2.60;;
21999;SDS011;11164;48.818;2.322;2023-11-19T08:03:21;9.60;;;2.20;;
21999;SDS011;11164;48.818;2.322;2023-11-19T08:05:47;10.95;;;2.15;;
21999;SDS011;11164;48.818;2.322;2023-11-19T08:08:12;11.98;;;2.50;;
21999;SDS011;11164;48.818;2.322;2023-11-19T08:10:38;10.73;;;1.80;;
21999;SDS011;11164;48.818;2.322;2023-11-19T08:13:05;12.63;;;1.92;;
21999;SDS011;11164;48.818;2.322;2023-11-19T08:15:31;12.82;;;2.33;;
21999;SDS011;11164;48.818;2.322;2023-11-19T08:17:56;11.52;;;1.88;;
21999;SDS011;11164;48.818;2.322;2023-11-19T08:20:22;11.13;;;2.13;;
21999;SDS011;11164;48.818;2.322;2023-11-19T08:22:47;14.85;;;2.22;;
21999;SDS011;11164;48.818;2.322;2023-11-19T08:25:13;8.73;;;1.83;;
21999;SDS011;11164;48.818;2.322;2023-11-19T08:27:38;10.40;;;1.92;;
21999;SDS011;11164;48.818;2.322;2023-11-19T08:30:04;10.75;;;1.80;;
21999;SDS011;11164;48.818;2.322;2023-11-19T08:32:31;10.48;;;1.90;;
21999;SDS011;11164;48.818;2.322;2023-11-19T08:34:56;8.07;;;1.80;;
21999;SDS011;11164;48.818;2.322;2023-11-19T08:37:22;12.60;;;2.00;;
21999;SDS011;11164;48.818;2.322;2023-11-19T08:39:47;10.43;;;2.30;;
21999;SDS011;11164;48.818;2.322;2023-11-19T08:42:13;9.98;;;2.00;;
21999;SDS011;11164;48.818;2.322;2023-11-19T08:44:39;10.45;;;2.17;;
21999;SDS011;11164;48.818;2.322;2023-11-19T08:47:08;11.98;;;2.30;;
21999;SDS011;11164;48.818;2.322;2023-11-19T08:49:33;9.30;;;2.10;;
21999;SDS011;11164;48.818;2.322;2023-11-19T08:51:58;12.35;;;3.15;;
21999;SDS011;11164;48.818;2.322;2023-11-19T08:54:24;12.07;;;1.90;;
21999;SDS011;11164;48.818;2.322;2023-11-19T08:56:49;9.20;;;1.95;;
21999;SDS011;11164;48.818;2.322;2023-11-19T08:59:15;11.07;;;1.98;;
21999;SDS011;11164;48.818;2.322;2023-11-19T09:01:41;11.18;;;2.28;;
21999;SDS011;11164;48.818;2.322;2023-11-19T09:04:07;12.38;;;2.13;;
21999;SDS011;11164;48.818;2.322;2023-11-19T09:06:32;11.68;;;1.95;;
21999;SDS011;11164;48.818;2.322;2023-11-19T09:08:58;12.18;;;2.40;;
21999;SDS011;11164;48.818;2.322;2023-11-19T09:11:27;15.95;;;2.40;;
21999;SDS011;11164;48.818;2.322;2023-11-19T09:13:52;16.58;;;2.75;;
21999;SDS011;11164;48.818;2.322;2023-11-19T09:16:17;11.30;;;1.98;;
21999;SDS011;11164;48.818;2.322;2023-11-19T09:18:43;12.95;;;2.00;;
21999;SDS011;11164;48.818;2.322;2023-11-19T09:21:10;12.45;;;2.38;;
21999;SDS011;11164;48.818;2.322;2023-11-19T09:23:36;13.00;;;2.42;;
21999;SDS011;11164;48.818;2.322;2023-11-19T09:26:04;13.35;;;2.40;;
21999;SDS011;11164;48.818;2.322;2023-11-19T09:28:30;9.20;;;2.00;;
21999;SDS011;11164;48.818;2.322;2023-11-19T09:30:55;16.17;;;2.60;;
21999;SDS011;11164;48.818;2.322;2023-11-19T09:33:21;11.63;;;2.25;;
21999;SDS011;11164;48.818;2.322;2023-11-19T09:35:46;17.67;;;2.40;;
21999;SDS011;11164;48.818;2.322;2023-11-19T09:38:11;11.02;;;2.58;;
21999;SDS011;11164;48.818;2.322;2023-11-19T09:40:37;13.35;;;2.42;;
21999;SDS011;11164;48.818;2.322;2023-11-19T09:43:03;16.48;;;3.00;;
21999;SDS011;11164;48.818;2.322;2023-11-19T09:45:29;12.85;;;2.85;;
21999;SDS011;11164;48.818;2.322;2023-11-19T09:48:04;15.95;;;2.50;;
21999;SDS011;11164;48.818;2.322;2023-11-19T09:50:30;13.60;;;2.60;;
21999;SDS011;11164;48.818;2.322;2023-11-19T09:52:56;12.20;;;2.40;;
21999;SDS011;11164;48.818;2.322;2023-11-19T09:55:21;15.45;;;2.38;;
21999;SDS011;11164;48.818;2.322;2023-11-19T09:57:46;19.08;;;3.05;;
21999;SDS011;11164;48.818;2.322;2023-11-19T10:00:16;8.80;;;1.90;;
21999;SDS011;11164;48.818;2.322;2023-11-19T10:02:44;14.55;;;2.35;;
21999;SDS011;11164;48.818;2.322;2023-11-19T10:05:11;15.57;;;2.15;;
21999;SDS011;11164;48.818;2.322;2023-11-19T10:07:38;12.93;;;2.60;;
21999;SDS011;11164;48.818;2.322;2023-11-19T10:10:03;12.27;;;2.15;;
21999;SDS011;11164;48.818;2.322;2023-11-19T10:12:29;15.90;;;2.80;;
21999;SDS011;11164;48.818;2.322;2023-11-19T10:14:58;19.95;;;2.83;;
21999;SDS011;11164;48.818;2.322;2023-11-19T10:17:33;12.68;;;1.80;;
21999;SDS011;11164;48.818;2.322;2023-11-19T10:19:59;6.43;;;1.52;;
21999;SDS011;11164;48.818;2.322;2023-11-19T10:22:27;9.63;;;2.40;;
21999;SDS011;11164;48.818;2.322;2023-11-19T10:24:52;16.35;;;2.72;;
21999;SDS011;11164;48.818;2.322;2023-11-19T10:27:18;12.00;;;2.67;;
21999;SDS011;11164;48.818;2.322;2023-11-19T10:29:44;13.43;;;2.88;;
21999;SDS011;11164;48.818;2.322;2023-11-19T10:32:12;51.50;;;4.68;;
21999;SDS011;11164;48.818;2.322;2023-11-19T10:34:37;16.13;;;2.20;;
21999;SDS011;11164;48.818;2.322;2023-11-19T10:37:06;15.93;;;2.85;;
21999;SDS011;11164;48.818;2.322;2023-11-19T10:42:22;13.77;;;2.70;;
21999;SDS011;11164;48.818;2.322;2023-11-19T10:44:47;14.73;;;2.47;;
21999;SDS011;11164;48.818;2.322;2023-11-19T10:47:13;15.45;;;2.75;;
21999;SDS011;11164;48.818;2.322;2023-11-19T10:49:39;16.50;;;2.83;;
21999;SDS011;11164;48.818;2.322;2023-11-19T10:52:05;13.07;;;2.78;;
21999;SDS011;11164;48.818;2.322;2023-11-19T10:54:34;11.93;;;2.38;;
21999;SDS011;11164;48.818;2.322;2023-11-19T10:57:00;12.45;;;2.95;;
21999;SDS011;11164;48.818;2.322;2023-11-19T10:59:30;17.20;;;2.50;;
21999;SDS011;11164;48.818;2.322;2023-11-19T11:02:00;16.95;;;2.75;;
21999;SDS011;11164;48.818;2.322;2023-11-19T11:04:32;9.35;;;2.03;;
21999;SDS011;11164;48.818;2.322;2023-11-19T11:07:02;14.40;;;2.67;;
21999;SDS011;11164;48.818;2.322;2023-11-19T11:09:29;14.52;;;3.00;;
21999;SDS011;11164;48.818;2.322;2023-11-19T11:11:55;21.40;;;3.13;;
21999;SDS011;11164;48.818;2.322;2023-11-19T11:14:22;16.98;;;3.20;;
21999;SDS011;11164;48.818;2.322;2023-11-19T11:16:49;13.10;;;2.60;;
21999;SDS011;11164;48.818;2.322;2023-11-19T11:19:15;13.75;;;2.22;;
21999;SDS011;11164;48.818;2.322;2023-11-19T11:21:42;12.90;;;2.25;;
21999;SDS011;11164;48.818;2.322;2023-11-19T11:29:47;14.50;;;3.28;;
21999;SDS011;11164;48.818;2.322;2023-11-19T11:35:19;12.77;;;2.78;;
21999;SDS011;11164;48.818;2.322;2023-11-19T11:37:59;13.77;;;3.70;;
21999;SDS011;11164;48.818;2.322;2023-11-19T11:40:28;17.50;;;3.05;;
21999;SDS011;11164;48.818;2.322;2023-11-19T11:42:54;15.13;;;2.63;;
21999;SDS011;11164;48.818;2.322;2023-11-19T11:45:19;12.68;;;2.28;;
21999;SDS011;11164;48.818;2.322;2023-11-19T11:48:10;14.05;;;1.95;;
21999;SDS011;11164;48.818;2.322;2023-11-19T11:50:47;11.93;;;2.25;;
21999;SDS011;11164;48.818;2.322;2023-11-19T11:53:14;10.63;;;1.67;;
21999;SDS011;11164;48.818;2.322;2023-11-19T11:58:07;12.52;;;1.50;;
21999;SDS011;11164;48.818;2.322;2023-11-19T12:00:37;15.85;;;2.45;;
21999;SDS011;11164;48.818;2.322;2023-11-19T12:03:05;13.00;;;2.15;;
21999;SDS011;11164;48.818;2.322;2023-11-19T12:05:32;9.98;;;1.80;;
21999;SDS011;11164;48.818;2.322;2023-11-19T12:08:03;15.45;;;2.38;;
21999;SDS011;11164;48.818;2.322;2023-11-19T12:10:32;15.20;;;3.20;;
21999;SDS011;11164;48.818;2.322;2023-11-19T12:13:02;11.50;;;2.10;;
21999;SDS011;11164;48.818;2.322;2023-11-19T12:15:33;15.55;;;3.00;;
21999;SDS011;11164;48.818;2.322;2023-11-19T12:18:28;10.75;;;2.03;;
21999;SDS011;11164;48.818;2.322;2023-11-19T12:23:21;12.93;;;2.10;;
21999;SDS011;11164;48.818;2.322;2023-11-19T12:25:47;8.65;;;1.60;;
21999;SDS011;11164;48.818;2.322;2023-11-19T12:28:13;9.98;;;1.52;;
21999;SDS011;11164;48.818;2.322;2023-11-19T12:30:39;12.20;;;2.08;;
21999;SDS011;11164;48.818;2.322;2023-11-19T12:33:08;12.77;;;2.67;;
21999;SDS011;11164;48.818;2.322;2023-11-19T12:38:05;9.82;;;1.52;;
21999;SDS011;11164;48.818;2.322;2023-11-19T12:40:31;9.65;;;1.88;;
21999;SDS011;11164;48.818;2.322;2023-11-19T12:42:56;11.93;;;2.30;;
21999;SDS011;11164;48.818;2.322;2023-11-19T12:45:22;9.02;;;1.80;;
21999;SDS011;11164;48.818;2.322;2023-11-19T12:47:48;12.55;;;2.92;;
21999;SDS011;11164;48.818;2.322;2023-11-19T12:50:15;12.98;;;2.33;;
21999;SDS011;11164;48.818;2.322;2023-11-19T12:52:42;13.98;;;2.33;;
21999;SDS011;11164;48.818;2.322;2023-11-19T12:57:53;11.27;;;2.08;;
21999;SDS011;11164;48.818;2.322;2023-11-19T13:00:20;13.75;;;2.50;;
21999;SDS011;11164;48.818;2.322;2023-11-19T13:02:47;13.10;;;2.13;;
21999;SDS011;11164;48.818;2.322;2023-11-19T13:07:48;10.60;;;2.10;;
21999;SDS011;11164;48.818;2.322;2023-11-19T13:10:14;11.20;;;2.15;;
21999;SDS011;11164;48.818;2.322;2023-11-19T13:12:40;15.70;;;3.22;;
21999;SDS011;11164;48.818;2.322;2023-11-19T13:15:06;16.60;;;3.05;;
21999;SDS011;11164;48.818;2.322;2023-11-19T13:17:31;12.45;;;2.22;;
21999;SDS011;11164;48.818;2.322;2023-11-19T13:19:57;16.38;;;2.60;;
21999;SDS011;11164;48.818;2.322;2023-11-19T13:22:22;15.27;;;2.50;;
21999;SDS011;11164;48.818;2.322;2023-11-19T13:24:48;16.70;;;3.42;;
21999;SDS011;11164;48.818;2.322;2023-11-19T13:27:14;18.13;;;2.67;;
21999;SDS011;11164;48.818;2.322;2023-11-19T13:29:40;12.90;;;2.00;;
21999;SDS011;11164;48.818;2.322;2023-11-19T13:32:05;14.82;;;2.33;;
21999;SDS011;11164;48.818;2.322;2023-11-19T13:34:31;11.10;;;2.10;;
21999;SDS011;11164;48.818;2.322;2023-11-19T13:36:56;15.10;;;2.22;;
21999;SDS011;11164;48.818;2.322;2023-11-19T13:39:21;12.63;;;2.50;;
21999;SDS011;11164;48.818;2.322;2023-11-19T13:41:48;14.77;;;2.63;;
21999;SDS011;11164;48.818;2.322;2023-11-19T13:44:14;13.10;;;2.58;;
21999;SDS011;11164;48.818;2.322;2023-11-19T13:46:40;10.25;;;1.90;;
21999;SDS011;11164;48.818;2.322;2023-11-19T13:49:05;19.10;;;2.90;;
21999;SDS011;11164;48.818;2.322;2023-11-19T13:51:31;13.13;;;2.55;;
21999;SDS011;11164;48.818;2.322;2023-11-19T13:53:56;11.10;;;2.22;;
21999;SDS011;11164;48.818;2.322;2023-11-19T13:56:21;14.90;;;2.60;;
21999;SDS011;11164;48.818;2.322;2023-11-19T13:58:47;10.45;;;2.50;;
21999;SDS011;11164;48.818;2.322;2023-11-19T14:01:12;12.35;;;2.33;;
21999;SDS011;11164;48.818;2.322;2023-11-19T14:03:38;16.65;;;2.70;;
21999;SDS011;11164;48.818;2.322;2023-11-19T14:06:03;13.95;;;2.67;;
21999;SDS011;11164;48.818;2.322;2023-11-19T14:08:28;13.63;;;2.78;;
21999;SDS011;11164;48.818;2.322;2023-11-19T14:10:54;15.55;;;2.80;;
21999;SDS011;11164;48.818;2.322;2023-11-19T14:13:22;13.38;;;2.55;;
21999;SDS011;11164;48.818;2.322;2023-11-19T14:15:49;10.57;;;2.67;;
21999;SDS011;11164;48.818;2.322;2023-11-19T14:18:14;15.00;;;2.97;;
21999;SDS011;11164;48.818;2.322;2023-11-19T14:20:39;14.68;;;2.72;;
21999;SDS011;11164;48.818;2.322;2023-11-19T14:23:06;22.05;;;3.25;;
21999;SDS011;11164;48.818;2.322;2023-11-19T14:25:31;13.07;;;2.75;;
21999;SDS011;11164;48.818;2.322;2023-11-19T14:27:56;13.23;;;2.65;;
21999;SDS011;11164;48.818;2.322;2023-11-19T14:30:22;14.05;;;2.78;;
21999;SDS011;11164;48.818;2.322;2023-11-19T14:32:47;14.90;;;2.80;;
21999;SDS011;11164;48.818;2.322;2023-11-19T14:35:13;20.27;;;3.47;;
21999;SDS011;11164;48.818;2.322;2023-11-19T14:37:39;16.52;;;2.63;;
21999;SDS011;11164;48.818;2.322;2023-11-19T14:40:04;14.85;;;2.55;;
21999;SDS011;11164;48.818;2.322;2023-11-19T14:42:31;12.35;;;1.90;;
21999;SDS011;11164;48.818;2.322;2023-11-19T14:44:57;13.50;;;2.40;;
21999;SDS011;11164;48.818;2.322;2023-11-19T14:47:22;9.90;;;2.03;;
21999;SDS011;11164;48.818;2.322;2023-11-19T14:49:48;15.70;;;2.72;;
21999;SDS011;11164;48.818;2.322;2023-11-19T14:52:13;14.85;;;2.72;;
21999;SDS011;11164;48.818;2.322;2023-11-19T14:54:39;11.88;;;2.50;;
21999;SDS011;11164;48.818;2.322;2023-11-19T14:57:04;15.50;;;3.20;;
21999;SDS011;11164;48.818;2.322;2023-11-19T14:59:31;15.30;;;2.42;;